Terminal Aerodrome Forecast
Issued by NWS

Home | Current Version | Previous Version | Text Only | Print | Product List | Glossary On
Versions: 1 2 3 4 5 6 7 8 9 10 11 12 13 14 15 16 17
000
FTUS42 KMLB 041752
TAFTIX
TAF
KTIX 041752Z 0418/0518 16010G17KT P6SM SCT025 SCT035
     FM050900 VRB03KT 6SM BR SCT010 SCT025
     FM051300 18005KT P6SM SCT025 SCT035=

USA.gov is the U.S. government's official web portal to all federal, state and local government web resources and services.